createdAt,value
2023-04-26T00:02:15.259Z,99.90
2023-04-26T00:04:43.548Z,99.90
2023-04-26T00:07:10.806Z,99.90
2023-04-26T00:09:41.965Z,99.90
2023-04-26T00:12:08.737Z,99.90
2023-04-26T00:14:38.097Z,99.90
2023-04-26T00:17:05.757Z,99.90
2023-04-26T00:19:32.513Z,99.90
2023-04-26T00:22:00.137Z,99.90
2023-04-26T00:24:26.965Z,99.90
2023-04-26T00:26:54.622Z,99.90
2023-04-26T00:29:21.809Z,99.90
2023-04-26T00:31:48.733Z,99.90
2023-04-26T00:34:16.366Z,99.90
2023-04-26T00:36:44.348Z,99.90
2023-04-26T00:39:11.789Z,99.90
2023-04-26T00:41:38.908Z,99.90
2023-04-26T00:44:06.613Z,99.90
2023-04-26T00:46:35.509Z,99.90
2023-04-26T00:49:02.690Z,99.90
2023-04-26T00:51:30.875Z,99.90
2023-04-26T00:53:57.866Z,99.90
2023-04-26T00:56:25.546Z,99.90
2023-04-26T00:58:55.526Z,99.90
2023-04-26T01:01:23.559Z,99.90
2023-04-26T01:03:50.449Z,99.90
2023-04-26T01:06:20.218Z,99.90
2023-04-26T01:08:49.706Z,99.90
2023-04-26T01:11:18.831Z,99.90
2023-04-26T01:13:46.568Z,99.90
2023-04-26T01:16:21.173Z,99.90
2023-04-26T01:18:52.571Z,99.90
2023-04-26T01:21:25.494Z,99.90
2023-04-26T01:23:54.003Z,99.90
2023-04-26T01:26:22.358Z,99.90
2023-04-26T01:28:54.471Z,99.90
2023-04-26T01:31:23.615Z,99.90
2023-04-26T01:33:51.436Z,99.90
2023-04-26T01:36:19.167Z,99.90
2023-04-26T01:38:49.201Z,99.90
2023-04-26T01:41:16.694Z,99.90
2023-04-26T01:43:46.488Z,99.90
2023-04-26T01:46:14.310Z,99.90
2023-04-26T01:48:41.239Z,99.90
2023-04-26T01:51:08.419Z,99.90
2023-04-26T01:53:35.144Z,99.90
2023-04-26T01:56:06.265Z,99.90
2023-04-26T01:58:38.290Z,99.90
2023-04-26T02:01:06.478Z,99.90
2023-04-26T02:03:33.653Z,99.90
2023-04-26T02:06:00.998Z,99.90
2023-04-26T02:08:28.045Z,99.90
2023-04-26T02:10:54.976Z,99.90
2023-04-26T02:13:22.082Z,99.90
2023-04-26T02:15:49.540Z,99.90
2023-04-26T02:18:18.293Z,99.90
2023-04-26T02:20:46.001Z,99.90
2023-04-26T02:23:14.392Z,99.90
2023-04-26T02:25:42.165Z,99.90
2023-04-26T02:28:11.523Z,99.90
2023-04-26T02:30:38.454Z,99.90
2023-04-26T02:33:08.694Z,99.90
2023-04-26T02:35:36.957Z,99.90
2023-04-26T02:38:04.198Z,99.90
2023-04-26T02:40:33.745Z,99.90
2023-04-26T02:43:01.504Z,99.90
2023-04-26T02:45:28.914Z,99.90
2023-04-26T02:47:55.760Z,99.90
2023-04-26T02:50:23.418Z,99.90
2023-04-26T02:52:51.070Z,99.90
2023-04-26T02:55:17.902Z,99.90
2023-04-26T02:57:44.691Z,99.90
2023-04-26T03:00:14.206Z,99.90
2023-04-26T03:02:42.539Z,99.90
2023-04-26T03:05:10.577Z,99.90
2023-04-26T03:07:40.315Z,99.90
2023-04-26T03:10:10.048Z,99.90
2023-04-26T03:12:37.988Z,99.90
2023-04-26T03:15:05.434Z,99.90
2023-04-26T03:17:32.626Z,99.90
2023-04-26T03:20:02.881Z,99.90
2023-04-26T03:22:29.893Z,99.90
2023-04-26T03:25:00.728Z,99.90
2023-04-26T03:27:28.964Z,99.90
2023-04-26T03:29:58.254Z,99.90
2023-04-26T03:32:25.430Z,99.90
2023-04-26T03:34:54.080Z,99.90
2023-04-26T03:37:20.992Z,99.90
2023-04-26T03:39:52.350Z,99.90
2023-04-26T03:42:20.717Z,99.90
2023-04-26T03:44:48.982Z,99.90
2023-04-26T03:47:16.117Z,99.90
2023-04-26T03:49:48.301Z,99.90
2023-04-26T03:52:15.661Z,99.90
2023-04-26T03:54:43.806Z,99.90
2023-04-26T03:57:10.621Z,99.90
2023-04-26T03:59:38.515Z,99.90
2023-04-26T04:02:12.345Z,99.90
2023-04-26T04:04:39.762Z,99.90
2023-04-26T04:07:07.525Z,99.90
2023-04-26T04:09:37.310Z,99.90
2023-04-26T04:12:05.551Z,99.90
2023-04-26T04:14:32.922Z,99.90
2023-04-26T04:17:01.156Z,99.90
2023-04-26T04:19:28.928Z,99.90
2023-04-26T04:21:57.163Z,99.90
2023-04-26T04:24:28.656Z,99.90
2023-04-26T04:26:56.237Z,99.90
2023-04-26T04:29:23.949Z,99.90
2023-04-26T04:31:54.164Z,99.90
2023-04-26T04:34:24.094Z,99.90
2023-04-26T04:36:51.334Z,99.90
2023-04-26T04:39:24.150Z,99.90
2023-04-26T04:41:51.423Z,99.90
2023-04-26T04:44:24.117Z,99.90
2023-04-26T04:46:56.164Z,99.90
2023-04-26T04:49:25.239Z,99.90
2023-04-26T04:51:53.375Z,99.90
2023-04-26T04:54:24.581Z,99.90
2023-04-26T04:56:51.901Z,99.90
2023-04-26T04:59:19.882Z,99.90
2023-04-26T05:01:52.590Z,99.90
2023-04-26T05:04:20.062Z,99.90
2023-04-26T05:06:48.284Z,99.90
2023-04-26T05:09:15.584Z,99.90
2023-04-26T05:11:46.282Z,99.90
2023-04-26T05:14:16.267Z,99.90
2023-04-26T05:16:44.179Z,99.90
2023-04-26T05:19:11.849Z,99.90
2023-04-26T05:21:40.348Z,99.90
2023-04-26T05:24:07.148Z,99.90
2023-04-26T05:26:36.193Z,99.90
2023-04-26T05:29:04.963Z,99.90
2023-04-26T05:31:32.053Z,99.90
2023-04-26T05:34:00.624Z,99.90
2023-04-26T05:36:29.980Z,99.90
2023-04-26T05:38:57.101Z,99.90
2023-04-26T05:41:27.122Z,99.90
2023-04-26T05:43:57.091Z,99.90
2023-04-26T05:46:33.547Z,99.90
2023-04-26T05:49:04.459Z,99.90
2023-04-26T05:51:32.931Z,99.90
2023-04-26T05:54:00.968Z,99.90
2023-04-26T05:56:28.024Z,99.90
2023-04-26T05:58:56.542Z,99.90
2023-04-26T06:01:23.691Z,99.90
2023-04-26T06:03:51.847Z,99.90
2023-04-26T06:06:21.632Z,99.90
2023-04-26T06:08:49.144Z,99.90
2023-04-26T06:11:15.860Z,99.90
2023-04-26T06:13:43.047Z,99.90
2023-04-26T06:16:10.376Z,99.90
2023-04-26T06:18:42.148Z,99.90
2023-04-26T06:21:15.442Z,99.90
2023-04-26T06:26:22.864Z,99.90
2023-04-26T06:28:49.666Z,99.90
2023-04-26T06:31:19.482Z,99.90
2023-04-26T06:33:48.631Z,99.90
2023-04-26T06:36:17.644Z,99.90
2023-04-26T06:38:47.799Z,99.90
2023-04-26T06:41:14.708Z,99.90
2023-04-26T06:43:42.099Z,99.90
2023-04-26T06:46:10.862Z,99.90
2023-04-26T06:48:39.531Z,99.90
2023-04-26T06:51:08.010Z,98.10
2023-04-26T06:53:37.387Z,96.30
2023-04-26T06:56:04.887Z,95.10
2023-04-26T06:58:35.479Z,94.50
2023-04-26T07:01:04.205Z,95.30
2023-04-26T07:03:31.304Z,96.30
2023-04-26T07:06:01.171Z,97.80
2023-04-26T07:08:29.311Z,97.50
2023-04-26T07:10:56.543Z,97.60
2023-04-26T07:13:27.098Z,97.80
2023-04-26T07:15:55.649Z,98.50
2023-04-26T07:18:25.708Z,97.50
2023-04-26T07:20:53.278Z,98.00
2023-04-26T07:23:22.374Z,97.90
2023-04-26T07:25:49.594Z,98.70
2023-04-26T07:28:16.557Z,98.60
2023-04-26T07:30:43.725Z,99.40
2023-04-26T07:33:10.883Z,99.20
2023-04-26T07:35:38.013Z,99.30
2023-04-26T07:38:04.920Z,98.80
2023-04-26T07:40:32.082Z,97.50
2023-04-26T07:43:01.892Z,97.80
2023-04-26T07:45:31.100Z,98.00
2023-04-26T07:48:01.904Z,96.60
2023-04-26T07:50:30.007Z,95.40
2023-04-26T07:52:58.489Z,93.20
2023-04-26T07:55:32.786Z,92.50
2023-04-26T07:57:59.646Z,91.90
2023-04-26T08:00:26.849Z,92.70
2023-04-26T08:02:53.679Z,91.90
2023-04-26T08:05:21.563Z,92.00
2023-04-26T08:07:49.457Z,91.70
2023-04-26T08:10:16.426Z,93.40
2023-04-26T08:12:45.337Z,94.50
2023-04-26T08:15:14.022Z,95.20
2023-04-26T08:17:41.554Z,96.00
2023-04-26T08:20:10.347Z,94.30
2023-04-26T08:22:37.968Z,93.80
2023-04-26T08:25:06.113Z,93.10
2023-04-26T08:27:34.605Z,91.40
2023-04-26T08:30:02.063Z,92.20
2023-04-26T08:32:29.982Z,93.90
2023-04-26T08:34:56.861Z,94.60
2023-04-26T08:37:31.035Z,94.00
2023-04-26T08:39:59.249Z,92.50
2023-04-26T08:42:35.060Z,93.40
2023-04-26T08:45:06.120Z,93.30
2023-04-26T08:47:48.152Z,91.10
2023-04-26T08:50:15.878Z,90.00
2023-04-26T08:52:43.254Z,89.50
2023-04-26T08:55:11.294Z,90.00
2023-04-26T08:57:38.652Z,90.30
2023-04-26T09:00:10.887Z,90.70
2023-04-26T09:02:38.403Z,90.90
2023-04-26T09:05:08.685Z,90.40
2023-04-26T09:07:39.900Z,90.20
2023-04-26T09:10:11.345Z,90.60
2023-04-26T09:12:39.755Z,90.90
2023-04-26T09:15:21.500Z,91.60
2023-04-26T09:17:53.769Z,91.40
2023-04-26T09:20:25.486Z,91.60
2023-04-26T09:23:08.377Z,91.60
2023-04-26T09:25:40.835Z,91.10
2023-04-26T09:28:23.758Z,90.30
2023-04-26T09:30:51.428Z,89.60
2023-04-26T09:33:20.866Z,90.10
2023-04-26T09:35:48.034Z,90.20
2023-04-26T09:38:18.873Z,87.40
2023-04-26T09:40:46.959Z,88.30
2023-04-26T09:43:14.046Z,90.00
2023-04-26T09:45:47.084Z,90.30
2023-04-26T09:48:16.715Z,90.30
2023-04-26T09:50:48.502Z,91.00
2023-04-26T09:53:26.859Z,91.00
2023-04-26T09:55:57.087Z,91.60
2023-04-26T09:58:24.855Z,91.60
2023-04-26T10:00:53.532Z,91.60
2023-04-26T10:03:25.149Z,92.00
2023-04-26T10:05:53.630Z,91.50
2023-04-26T10:08:21.483Z,90.70
2023-04-26T10:10:49.023Z,91.70
2023-04-26T10:13:20.467Z,92.00
2023-04-26T10:15:50.221Z,92.00
2023-04-26T10:18:18.591Z,92.70
2023-04-26T10:20:49.216Z,93.10
2023-04-26T10:23:25.991Z,93.50
2023-04-26T10:25:58.392Z,94.40
2023-04-26T10:28:44.264Z,94.70
2023-04-26T10:31:11.742Z,95.10
2023-04-26T10:33:38.571Z,96.20
2023-04-26T10:36:08.933Z,95.80
2023-04-26T10:38:37.775Z,96.40
2023-04-26T10:41:24.146Z,96.00
2023-04-26T10:43:51.604Z,96.10
2023-04-26T10:46:38.593Z,95.70
2023-04-26T10:49:16.557Z,95.20
2023-04-26T10:52:03.054Z,94.90
2023-04-26T10:54:44.835Z,94.90
2023-04-26T10:57:13.391Z,94.50
2023-04-26T10:59:53.885Z,95.20
2023-04-26T11:02:41.298Z,97.50
2023-04-26T11:05:10.086Z,98.00
2023-04-26T11:07:40.186Z,98.90
2023-04-26T11:10:13.844Z,99.20
2023-04-26T11:12:42.318Z,99.40
2023-04-26T11:15:11.613Z,99.90
2023-04-26T11:17:44.441Z,99.90
2023-04-26T11:20:16.461Z,99.90
2023-04-26T11:22:44.150Z,99.90
2023-04-26T11:25:17.900Z,99.90
2023-04-26T11:27:46.921Z,99.90
2023-04-26T11:30:18.972Z,99.90
2023-04-26T11:32:49.332Z,99.90
2023-04-26T11:35:16.782Z,99.90
2023-04-26T11:37:46.904Z,99.90
2023-04-26T11:40:15.871Z,99.90
2023-04-26T11:42:44.719Z,99.90
2023-04-26T11:45:14.576Z,99.90
2023-04-26T11:47:43.169Z,99.90
2023-04-26T11:50:10.528Z,99.90
2023-04-26T11:52:39.786Z,99.90
2023-04-26T11:55:10.021Z,99.90
2023-04-26T11:57:39.485Z,99.90
2023-04-26T12:00:16.118Z,99.90
2023-04-26T12:02:50.132Z,99.90
2023-04-26T12:05:28.815Z,99.90
2023-04-26T12:07:56.917Z,99.90
2023-04-26T12:10:48.591Z,99.90
2023-04-26T12:13:16.066Z,99.90
2023-04-26T12:15:45.685Z,99.90
2023-04-26T12:18:17.272Z,99.90
2023-04-26T12:20:46.738Z,99.90
2023-04-26T12:23:17.804Z,99.90
2023-04-26T12:25:56.649Z,99.90
2023-04-26T12:28:24.045Z,99.90
2023-04-26T12:30:55.488Z,99.90
2023-04-26T12:33:25.570Z,99.90
2023-04-26T12:35:52.484Z,99.90
2023-04-26T12:38:20.979Z,99.90
2023-04-26T12:40:49.434Z,99.90
2023-04-26T12:43:16.930Z,99.90
2023-04-26T12:45:43.837Z,99.90
2023-04-26T12:48:12.054Z,99.90
2023-04-26T12:50:40.201Z,99.90
2023-04-26T12:53:07.041Z,99.90
2023-04-26T12:55:33.892Z,99.90
2023-04-26T12:58:00.765Z,99.90
2023-04-26T13:00:27.797Z,99.90
2023-04-26T13:02:54.782Z,99.90
2023-04-26T13:05:22.902Z,99.90
2023-04-26T13:07:49.947Z,99.90
2023-04-26T13:10:18.040Z,99.90
2023-04-26T13:12:47.620Z,99.90
2023-04-26T13:15:17.546Z,99.90
2023-04-26T13:17:46.393Z,99.90
2023-04-26T13:20:13.779Z,99.90
2023-04-26T13:22:42.550Z,99.90
2023-04-26T13:25:10.440Z,99.90
2023-04-26T13:27:37.763Z,99.90
2023-04-26T13:30:05.333Z,99.90
2023-04-26T13:32:32.879Z,99.90
2023-04-26T13:35:01.721Z,99.90
2023-04-26T13:37:28.660Z,99.90
2023-04-26T13:39:55.483Z,99.90
2023-04-26T13:42:34.927Z,99.90
2023-04-26T13:45:07.373Z,99.90
2023-04-26T13:47:34.709Z,99.90
2023-04-26T13:50:01.570Z,99.90
2023-04-26T13:52:29.061Z,99.90
2023-04-26T13:54:56.909Z,99.90
2023-04-26T13:57:24.207Z,99.90
2023-04-26T13:59:51.246Z,99.90
2023-04-26T14:02:19.197Z,99.90
2023-04-26T14:04:46.846Z,99.90
2023-04-26T14:07:13.759Z,99.90
2023-04-26T14:09:42.105Z,99.90
2023-04-26T14:12:11.103Z,99.90
2023-04-26T14:14:38.763Z,99.90
2023-04-26T14:17:06.324Z,99.90
2023-04-26T14:19:34.187Z,99.90
2023-04-26T14:22:04.854Z,99.90
2023-04-26T14:24:34.730Z,99.90
2023-04-26T14:27:04.256Z,99.90
2023-04-26T14:29:32.786Z,99.90
2023-04-26T14:32:00.416Z,99.90
2023-04-26T14:34:27.371Z,99.90
2023-04-26T14:36:57.108Z,99.90
2023-04-26T14:39:26.800Z,99.90
2023-04-26T14:41:55.876Z,99.90
2023-04-26T14:44:23.800Z,99.90
2023-04-26T14:46:50.671Z,99.90
2023-04-26T14:49:17.541Z,99.90
2023-04-26T14:51:44.762Z,99.90
2023-04-26T14:54:13.014Z,99.90
2023-04-26T14:56:41.647Z,99.90
2023-04-26T14:59:10.078Z,99.90
2023-04-26T15:01:37.772Z,99.90
2023-04-26T15:04:07.820Z,99.90
2023-04-26T15:06:35.160Z,99.90
2023-04-26T15:09:02.309Z,99.90
2023-04-26T15:11:31.315Z,99.90
2023-04-26T15:14:02.875Z,99.90
2023-04-26T15:16:31.419Z,99.90
2023-04-26T15:18:59.415Z,99.90
2023-04-26T15:21:27.694Z,99.90
2023-04-26T15:23:59.338Z,99.90
2023-04-26T15:26:28.996Z,99.90
2023-04-26T15:28:57.250Z,99.90
2023-04-26T15:31:24.979Z,99.90
2023-04-26T15:33:54.126Z,99.90
2023-04-26T15:36:25.979Z,99.90
2023-04-26T15:39:00.044Z,99.90
2023-04-26T15:41:29.825Z,99.90
2023-04-26T15:43:57.529Z,99.90
2023-04-26T15:46:26.731Z,99.90
2023-04-26T15:48:54.104Z,99.90
2023-04-26T15:51:22.076Z,99.90
2023-04-26T15:53:50.125Z,99.90
2023-04-26T15:56:20.113Z,99.90
2023-04-26T15:58:48.366Z,99.90
2023-04-26T16:01:16.033Z,99.90
2023-04-26T16:03:47.155Z,99.90
2023-04-26T16:06:14.756Z,99.90
2023-04-26T16:08:43.951Z,99.90
2023-04-26T16:11:11.708Z,99.90
2023-04-26T16:13:38.530Z,99.90
2023-04-26T16:16:14.731Z,99.90
2023-04-26T16:18:43.774Z,99.90
2023-04-26T16:21:10.910Z,99.90
2023-04-26T16:26:26.873Z,99.90
2023-04-26T16:28:58.378Z,99.90
2023-04-26T16:31:27.219Z,99.90
2023-04-26T16:33:54.055Z,99.90
2023-04-26T16:36:22.521Z,99.90
2023-04-26T16:38:50.867Z,99.90
2023-04-26T16:41:20.164Z,99.90
2023-04-26T16:43:47.229Z,99.90
2023-04-26T16:46:15.347Z,99.90
2023-04-26T16:48:44.166Z,99.90
2023-04-26T16:51:17.045Z,99.90
2023-04-26T16:56:28.102Z,99.90
2023-04-26T16:58:54.871Z,99.90
2023-04-26T17:01:21.754Z,99.90
2023-04-26T17:03:53.231Z,99.90
2023-04-26T17:06:20.909Z,99.90
2023-04-26T17:08:49.871Z,99.90
2023-04-26T17:11:24.884Z,99.90
2023-04-26T17:13:56.137Z,99.90
2023-04-26T17:16:23.663Z,99.90
2023-04-26T17:18:51.796Z,99.90
2023-04-26T17:21:19.124Z,99.90
2023-04-26T17:23:53.849Z,99.90
2023-04-26T17:26:26.503Z,99.90
2023-04-26T17:28:55.971Z,99.90
2023-04-26T17:31:31.230Z,99.90
2023-04-26T17:33:59.581Z,99.90
2023-04-26T17:36:29.077Z,99.90
2023-04-26T17:38:57.142Z,99.90
2023-04-26T17:41:24.427Z,99.90
2023-04-26T17:43:54.515Z,99.90
2023-04-26T17:46:24.454Z,99.90
2023-04-26T17:48:53.533Z,99.90
2023-04-26T17:51:25.968Z,99.90
2023-04-26T17:53:53.098Z,99.90
2023-04-26T17:56:21.199Z,99.90
2023-04-26T17:58:50.150Z,99.90
2023-04-26T18:01:18.402Z,99.90
2023-04-26T18:03:45.591Z,99.90
2023-04-26T18:06:13.014Z,99.90
2023-04-26T18:08:42.211Z,99.90
2023-04-26T18:11:12.253Z,99.90
2023-04-26T18:13:42.947Z,99.90
2023-04-26T18:16:14.681Z,99.90
2023-04-26T18:18:43.468Z,99.90
2023-04-26T18:21:18.661Z,99.90
2023-04-26T18:23:48.744Z,99.90
2023-04-26T18:26:26.626Z,99.90
2023-04-26T18:28:55.366Z,99.90
2023-04-26T18:31:24.009Z,99.90
2023-04-26T18:33:52.873Z,99.90
2023-04-26T18:36:23.676Z,99.90
2023-04-26T18:38:53.621Z,99.90
2023-04-26T18:41:26.056Z,99.90
2023-04-26T18:43:58.508Z,99.90
2023-04-26T18:46:26.639Z,99.90
2023-04-26T18:48:54.482Z,99.90
2023-04-26T18:51:21.406Z,99.90
2023-04-26T18:53:48.278Z,99.90
2023-04-26T18:56:19.456Z,99.90
2023-04-26T18:58:48.843Z,99.90
2023-04-26T19:01:19.815Z,99.90
2023-04-26T19:03:48.712Z,99.90
2023-04-26T19:06:16.949Z,99.90
2023-04-26T19:08:48.050Z,99.90
2023-04-26T19:11:14.974Z,99.90
2023-04-26T19:13:43.758Z,99.90
2023-04-26T19:16:13.169Z,99.90
2023-04-26T19:18:56.138Z,99.90
2023-04-26T19:21:23.747Z,99.90
2023-04-26T19:23:51.023Z,99.90
2023-04-26T19:26:26.817Z,99.90
2023-04-26T19:28:56.555Z,99.90
2023-04-26T19:31:24.300Z,99.90
2023-04-26T19:33:52.556Z,99.90
2023-04-26T19:36:21.230Z,99.90
2023-04-26T19:38:52.354Z,99.90
2023-04-26T19:41:21.134Z,99.90
2023-04-26T19:43:51.218Z,99.90
2023-04-26T19:46:25.190Z,99.90
2023-04-26T19:48:54.370Z,99.90
2023-04-26T19:51:23.218Z,99.90
2023-04-26T19:53:54.879Z,99.90
2023-04-26T19:56:21.654Z,99.90
2023-04-26T19:58:52.762Z,99.90
2023-04-26T20:01:20.102Z,99.90
2023-04-26T20:03:47.684Z,99.90
2023-04-26T20:06:18.922Z,99.90
2023-04-26T20:08:48.446Z,99.90
2023-04-26T20:11:20.685Z,99.90
2023-04-26T20:13:48.738Z,99.90
2023-04-26T20:16:16.943Z,99.90
2023-04-26T20:18:44.934Z,99.90
2023-04-26T20:21:13.737Z,99.90
2023-04-26T20:23:42.251Z,99.90
2023-04-26T20:26:12.343Z,99.90
2023-04-26T20:28:40.455Z,99.90
2023-04-26T20:31:09.028Z,99.90
2023-04-26T20:33:35.968Z,99.90
2023-04-26T20:36:04.552Z,99.90
2023-04-26T20:38:31.987Z,99.90
2023-04-26T20:41:05.272Z,99.90
2023-04-26T20:43:32.449Z,99.90
2023-04-26T20:46:09.513Z,99.90
2023-04-26T20:48:37.527Z,99.90
2023-04-26T20:51:08.737Z,99.90
2023-04-26T20:53:39.062Z,99.90
2023-04-26T20:56:07.907Z,99.90
2023-04-26T20:58:42.347Z,99.90
2023-04-26T21:01:10.076Z,99.90
2023-04-26T21:03:40.129Z,99.90
2023-04-26T21:06:07.108Z,99.90
2023-04-26T21:08:36.786Z,99.90
2023-04-26T21:11:06.894Z,99.90
2023-04-26T21:13:34.314Z,99.90
2023-04-26T21:16:04.634Z,99.90
2023-04-26T21:18:39.697Z,99.90
2023-04-26T21:21:07.764Z,99.90
2023-04-26T21:23:34.740Z,99.90
2023-04-26T21:26:02.452Z,99.90
2023-04-26T21:28:29.881Z,99.90
2023-04-26T21:31:05.076Z,99.90
2023-04-26T21:33:35.890Z,99.90
2023-04-26T21:36:03.017Z,99.90
2023-04-26T21:38:30.213Z,99.90
2023-04-26T21:40:59.404Z,99.90
2023-04-26T21:43:26.355Z,99.90
2023-04-26T21:45:55.885Z,99.90
2023-04-26T21:48:24.936Z,99.90
2023-04-26T21:50:52.369Z,99.90
2023-04-26T21:53:20.552Z,99.90
2023-04-26T21:55:57.505Z,99.90
2023-04-26T21:58:26.674Z,99.90
2023-04-26T22:00:55.350Z,99.90
2023-04-26T22:03:23.120Z,99.90
2023-04-26T22:05:50.603Z,99.90
2023-04-26T22:08:20.672Z,99.90
2023-04-26T22:10:52.003Z,99.90
2023-04-26T22:13:20.445Z,99.90
2023-04-26T22:15:48.272Z,99.90
2023-04-26T22:18:15.456Z,99.90
2023-04-26T22:20:42.952Z,99.90
2023-04-26T22:23:33.922Z,99.90
2023-04-26T22:26:03.346Z,99.90
2023-04-26T22:28:30.286Z,99.90
2023-04-26T22:30:57.044Z,99.90
2023-04-26T22:33:26.076Z,99.90
2023-04-26T22:35:57.640Z,99.90
2023-04-26T22:38:25.658Z,99.90
2023-04-26T22:40:52.729Z,99.90
2023-04-26T22:43:21.574Z,99.90
2023-04-26T22:45:49.010Z,99.90
2023-04-26T22:48:19.091Z,99.90
2023-04-26T22:50:56.263Z,99.90
2023-04-26T22:53:23.066Z,99.90
2023-04-26T22:55:53.056Z,99.90
2023-04-26T22:58:25.559Z,99.90
2023-04-26T23:00:55.699Z,99.90
2023-04-26T23:03:22.726Z,99.90
2023-04-26T23:05:51.670Z,99.90
2023-04-26T23:08:18.475Z,99.90
2023-04-26T23:10:48.219Z,99.90
2023-04-26T23:13:19.313Z,99.90
2023-04-26T23:15:46.419Z,99.90
2023-04-26T23:18:15.495Z,99.90
2023-04-26T23:20:43.618Z,99.90
2023-04-26T23:23:14.918Z,99.90
2023-04-26T23:25:42.356Z,99.90
2023-04-26T23:28:09.902Z,99.90
2023-04-26T23:30:37.295Z,99.90
2023-04-26T23:33:05.567Z,99.90
2023-04-26T23:35:35.911Z,99.90
2023-04-26T23:38:05.555Z,99.90
2023-04-26T23:40:32.583Z,99.90
2023-04-26T23:43:00.315Z,99.90
2023-04-26T23:45:27.127Z,99.90
2023-04-26T23:47:55.182Z,99.90
2023-04-26T23:50:22.302Z,99.90
2023-04-26T23:52:50.077Z,99.90
2023-04-26T23:55:17.311Z,99.90
2023-04-26T23:57:45.593Z,99.90
